createdAt,value
2018-07-01T00:00:06.277Z,60.54
2018-07-01T00:03:12.156Z,60.46
2018-07-01T00:06:18.184Z,60.66
2018-07-01T00:09:25.186Z,60.66
2018-07-01T00:12:30.119Z,61.39
2018-07-01T00:15:36.498Z,61.22
2018-07-01T00:18:43.720Z,61.31
2018-07-01T00:21:49.494Z,61.39
2018-07-01T00:24:54.881Z,61.35
2018-07-01T00:28:00.038Z,61.57
2018-07-01T00:31:06.417Z,60.82
2018-07-01T00:34:12.102Z,61.56
2018-07-01T00:37:18.242Z,61.76
2018-07-01T00:40:25.333Z,61.23
2018-07-01T00:43:30.861Z,62.03
2018-07-01T00:46:37.609Z,61.40
2018-07-01T00:49:42.720Z,61.62
2018-07-01T00:52:49.252Z,60.97
2018-07-01T00:55:54.961Z,61.49
2018-07-01T00:59:01.262Z,60.83
2018-07-01T01:02:06.626Z,61.59
2018-07-01T01:05:11.518Z,61.62
2018-07-01T01:08:16.970Z,61.34
2018-07-01T01:11:23.159Z,61.16
2018-07-01T01:14:29.297Z,61.61
2018-07-01T01:17:35.893Z,62.37
2018-07-01T01:20:42.667Z,61.57
2018-07-01T01:23:47.518Z,61.77
2018-07-01T01:26:54.056Z,61.31
2018-07-01T01:30:00.249Z,62.16
2018-07-01T01:33:06.401Z,61.51
2018-07-01T01:36:12.069Z,62.15
2018-07-01T01:39:21.748Z,61.11
2018-07-01T01:42:32.091Z,61.16
2018-07-01T01:45:42.321Z,61.94
2018-07-01T01:48:59.695Z,61.75
2018-07-01T01:52:09.556Z,61.85
2018-07-01T01:55:38.964Z,61.35
2018-07-01T01:58:49.219Z,61.56
2018-07-01T02:02:01.310Z,61.44
2018-07-01T02:05:10.174Z,61.72
2018-07-01T02:08:21.375Z,61.24
2018-07-01T02:11:28.596Z,62.20
2018-07-01T02:14:43.974Z,61.52
2018-07-01T02:17:52.309Z,61.73
2018-07-01T02:20:58.218Z,61.77
2018-07-01T02:24:08.139Z,61.87
2018-07-01T02:27:13.885Z,61.85
2018-07-01T02:30:19.386Z,62.39
2018-07-01T02:33:25.177Z,62.67
2018-07-01T02:36:30.344Z,62.41
2018-07-01T02:39:37.603Z,63.15
2018-07-01T02:42:43.627Z,63.08
2018-07-01T02:45:49.342Z,63.22
2018-07-01T02:48:55.355Z,63.03
2018-07-01T02:52:01.483Z,63.32
2018-07-01T02:55:07.264Z,63.71
2018-07-01T02:58:12.150Z,63.36
2018-07-01T03:01:17.425Z,63.43
2018-07-01T03:04:24.671Z,63.16
2018-07-01T03:07:31.461Z,63.92
2018-07-01T03:10:37.467Z,63.46
2018-07-01T03:13:43.727Z,64.04
2018-07-01T03:16:49.787Z,64.06
2018-07-01T03:19:56.015Z,63.65
2018-07-01T03:23:01.969Z,63.77
2018-07-01T03:26:09.395Z,64.38
2018-07-01T03:29:14.339Z,64.33
2018-07-01T03:32:20.491Z,64.47
2018-07-01T03:35:26.149Z,64.72
2018-07-01T03:38:32.390Z,64.47
2018-07-01T03:41:38.453Z,64.09
2018-07-01T03:44:44.809Z,64.14
2018-07-01T03:47:50.394Z,64.38
2018-07-01T03:50:55.322Z,64.46
2018-07-01T03:54:00.741Z,64.05
2018-07-01T03:57:05.991Z,64.47
2018-07-01T04:00:12.158Z,64.34
2018-07-01T04:03:18.071Z,64.17
2018-07-01T04:06:23.294Z,63.92
2018-07-01T04:09:32.919Z,64.27
2018-07-01T04:12:38.118Z,63.73
2018-07-01T04:15:43.953Z,63.91
2018-07-01T04:18:50.020Z,63.55
2018-07-01T04:21:54.935Z,63.71
2018-07-01T04:25:00.531Z,63.12
2018-07-01T04:28:06.499Z,62.89
2018-07-01T04:31:12.406Z,63.51
2018-07-01T04:34:19.350Z,63.59
2018-07-01T04:37:25.358Z,63.16
2018-07-01T04:40:31.289Z,63.46
2018-07-01T04:43:37.279Z,64.12
2018-07-01T04:46:44.335Z,63.53
2018-07-01T04:49:50.402Z,62.82
2018-07-01T04:52:56.036Z,63.29
2018-07-01T04:56:01.531Z,63.79
2018-07-01T04:59:07.626Z,63.58
2018-07-01T05:02:13.855Z,64.04
2018-07-01T05:05:20.999Z,64.34
2018-07-01T05:08:26.671Z,63.99
2018-07-01T05:11:31.834Z,64.21
2018-07-01T05:14:36.959Z,64.55
2018-07-01T05:17:42.158Z,63.61
2018-07-01T05:20:48.420Z,64.00
2018-07-01T05:23:53.599Z,63.67
2018-07-01T05:26:59.658Z,63.41
2018-07-01T05:30:06.924Z,63.38
2018-07-01T05:33:12.115Z,63.40
2018-07-01T05:36:18.685Z,63.21
2018-07-01T05:39:25.773Z,63.08
2018-07-01T05:42:31.253Z,63.11
2018-07-01T05:45:36.506Z,63.46
2018-07-01T05:48:42.583Z,63.21
2018-07-01T05:51:48.555Z,63.34
2018-07-01T05:54:55.526Z,63.59
2018-07-01T05:58:08.181Z,63.10
2018-07-01T06:01:13.322Z,63.28
2018-07-01T06:04:19.376Z,63.45
2018-07-01T06:07:25.071Z,63.24
2018-07-01T06:10:30.216Z,62.51
2018-07-01T06:13:35.588Z,63.27
2018-07-01T06:16:40.800Z,63.26
2018-07-01T06:19:46.873Z,62.84
2018-07-01T06:22:53.019Z,62.28
2018-07-01T06:25:59.866Z,62.85
2018-07-01T06:29:06.203Z,62.70
2018-07-01T06:32:11.595Z,62.63
2018-07-01T06:35:16.750Z,62.16
2018-07-01T06:38:21.894Z,62.14
2018-07-01T06:41:27.968Z,62.37
2018-07-01T06:44:34.098Z,62.60
2018-07-01T06:47:41.463Z,62.08
2018-07-01T06:50:47.178Z,61.87
2018-07-01T06:53:53.114Z,61.97
2018-07-01T06:56:59.106Z,61.58
2018-07-01T07:00:05.373Z,62.04
2018-07-01T07:03:11.049Z,61.51
2018-07-01T07:06:16.218Z,61.32
2018-07-01T07:09:22.267Z,61.11
2018-07-01T07:12:27.724Z,61.82
2018-07-01T07:15:32.869Z,61.31
2018-07-01T07:18:38.375Z,61.48
2018-07-01T07:21:43.524Z,60.87
2018-07-01T07:24:48.662Z,61.14
2018-07-01T07:27:53.782Z,61.06
2018-07-01T07:30:59.280Z,60.27
2018-07-01T07:34:04.415Z,60.38
2018-07-01T07:37:09.557Z,60.60
2018-07-01T07:40:15.706Z,60.36
2018-07-01T07:43:21.554Z,60.98
2018-07-01T07:46:26.399Z,60.84
2018-07-01T07:49:32.050Z,60.69
2018-07-01T07:52:38.117Z,60.28
2018-07-01T07:55:44.968Z,59.17
2018-07-01T07:58:51.014Z,58.99
2018-07-01T08:01:57.237Z,59.21
2018-07-01T08:05:03.429Z,59.48
2018-07-01T08:08:09.310Z,59.65
2018-07-01T08:11:15.505Z,59.61
2018-07-01T08:14:21.169Z,58.79
2018-07-01T08:17:28.041Z,58.04
2018-07-01T08:20:34.315Z,58.16
2018-07-01T08:23:40.322Z,58.20
2018-07-01T08:26:46.895Z,58.79
2018-07-01T08:29:52.852Z,58.50
2018-07-01T08:32:59.921Z,57.36
2018-07-01T08:36:07.201Z,57.44
2018-07-01T08:39:13.217Z,57.56
2018-07-01T08:42:27.551Z,57.56
2018-07-01T08:45:32.672Z,58.12
2018-07-01T08:48:37.795Z,58.02
2018-07-01T08:51:43.326Z,57.49
2018-07-01T08:54:50.506Z,57.84
2018-07-01T08:57:56.318Z,57.17
2018-07-01T09:01:03.287Z,56.89
2018-07-01T09:04:09.246Z,57.30
2018-07-01T09:07:15.171Z,56.67
2018-07-01T09:10:21.835Z,55.95
2018-07-01T09:13:27.847Z,56.26
2018-07-01T09:16:33.310Z,55.87
2018-07-01T09:19:39.237Z,55.00
2018-07-01T09:22:46.201Z,54.96
2018-07-01T09:25:53.487Z,54.73
2018-07-01T09:29:00.335Z,54.81
2018-07-01T09:32:06.277Z,54.74
2018-07-01T09:35:13.213Z,54.01
2018-07-01T09:38:19.214Z,54.65
2018-07-01T09:41:26.403Z,53.21
2018-07-01T09:44:33.254Z,54.06
2018-07-01T09:47:40.178Z,52.49
2018-07-01T09:50:47.249Z,52.65
2018-07-01T09:53:54.285Z,52.72
2018-07-01T09:57:00.357Z,50.75
2018-07-01T10:00:06.745Z,51.58
2018-07-01T10:03:13.770Z,51.08
2018-07-01T10:06:19.517Z,49.66
2018-07-01T10:09:26.613Z,47.96
2018-07-01T10:12:32.682Z,46.65
2018-07-01T10:15:37.814Z,47.26
2018-07-01T10:18:44.249Z,46.94
2018-07-01T10:21:50.163Z,47.76
2018-07-01T10:24:57.221Z,47.62
2018-07-01T10:28:03.202Z,48.59
2018-07-01T10:31:08.326Z,47.40
2018-07-01T10:34:14.368Z,47.02
2018-07-01T10:37:19.960Z,45.46
2018-07-01T10:40:26.090Z,47.23
2018-07-01T10:43:31.998Z,47.95
2018-07-01T10:46:38.058Z,46.92
2018-07-01T10:49:43.219Z,46.74
2018-07-01T10:52:49.298Z,48.40
2018-07-01T10:55:54.403Z,46.78
2018-07-01T10:59:00.953Z,46.37
2018-07-01T11:02:06.335Z,47.43
2018-07-01T11:05:12.828Z,46.95
2018-07-01T11:08:19.810Z,46.72
2018-07-01T11:11:26.101Z,46.86
2018-07-01T11:14:31.630Z,46.28
2018-07-01T11:17:36.741Z,45.88
2018-07-01T11:20:42.227Z,46.76
2018-07-01T11:23:48.511Z,46.90
2018-07-01T11:26:54.383Z,46.94
2018-07-01T11:30:00.038Z,46.14
2018-07-01T11:33:05.826Z,46.21
2018-07-01T11:36:10.939Z,47.14
2018-07-01T11:39:16.667Z,46.41
2018-07-01T11:42:22.740Z,47.10
2018-07-01T11:45:29.394Z,47.08
2018-07-01T11:48:36.467Z,47.17
2018-07-01T11:51:42.428Z,47.00
2018-07-01T11:54:48.478Z,45.55
2018-07-01T11:57:54.123Z,43.97
2018-07-01T12:01:00.137Z,45.13
2018-07-01T12:04:05.580Z,45.64
2018-07-01T12:07:11.094Z,45.30
2018-07-01T12:10:15.947Z,45.78
2018-07-01T12:13:22.343Z,45.41
2018-07-01T12:16:27.294Z,44.65
2018-07-01T12:19:32.419Z,44.96
2018-07-01T12:22:37.550Z,46.12
2018-07-01T12:25:43.061Z,46.38
2018-07-01T12:28:48.984Z,45.94
2018-07-01T12:31:55.186Z,46.67
2018-07-01T12:35:01.271Z,44.96
2018-07-01T12:38:07.599Z,46.22
2018-07-01T12:41:13.334Z,46.24
2018-07-01T12:44:19.398Z,45.44
2018-07-01T12:47:25.454Z,45.86
2018-07-01T12:50:31.339Z,46.11
2018-07-01T12:53:37.731Z,46.52
2018-07-01T12:56:44.494Z,45.14
2018-07-01T12:59:50.480Z,45.70
2018-07-01T13:02:57.867Z,45.27
2018-07-01T13:06:03.858Z,45.22
2018-07-01T13:09:11.671Z,44.65
2018-07-01T13:12:17.924Z,44.34
2018-07-01T13:15:23.203Z,44.67
2018-07-01T13:18:28.334Z,44.39
2018-07-01T13:21:33.687Z,43.94
2018-07-01T13:24:39.353Z,44.04
2018-07-01T13:27:44.895Z,43.60
2018-07-01T13:30:50.969Z,43.18
2018-07-01T13:33:56.842Z,43.65
2018-07-01T13:37:03.294Z,43.75
2018-07-01T13:40:08.774Z,43.38
2018-07-01T13:43:14.238Z,43.93
2018-07-01T13:46:20.248Z,42.20
2018-07-01T13:49:26.088Z,42.78
2018-07-01T13:52:32.775Z,40.42
2018-07-01T13:55:39.838Z,42.27
2018-07-01T13:58:46.957Z,42.11
2018-07-01T14:01:54.065Z,41.53
2018-07-01T14:04:59.835Z,39.46
2018-07-01T14:08:05.270Z,39.18
2018-07-01T14:11:10.395Z,40.08
2018-07-01T14:14:16.807Z,40.00
2018-07-01T14:17:23.252Z,40.32
2018-07-01T14:20:29.015Z,39.44
2018-07-01T14:23:35.212Z,39.12
2018-07-01T14:26:41.264Z,39.05
2018-07-01T14:29:47.475Z,37.16
2018-07-01T14:32:54.362Z,34.96
2018-07-01T14:36:01.743Z,38.23
2018-07-01T14:39:11.664Z,37.48
2018-07-01T14:42:17.771Z,37.22
2018-07-01T14:45:22.988Z,37.26
2018-07-01T14:48:29.642Z,38.20
2018-07-01T14:51:35.471Z,38.75
2018-07-01T14:54:41.073Z,39.50
2018-07-01T14:57:46.246Z,36.95
2018-07-01T15:00:52.293Z,34.69
2018-07-01T15:03:58.349Z,37.59
2018-07-01T15:07:04.376Z,38.50
2018-07-01T15:10:11.478Z,38.45
2018-07-01T15:13:18.685Z,38.51
2018-07-01T15:16:24.568Z,38.93
2018-07-01T15:19:30.758Z,37.73
2018-07-01T15:22:37.596Z,39.04
2018-07-01T15:25:43.567Z,38.24
2018-07-01T15:28:48.745Z,38.89
2018-07-01T15:31:55.840Z,39.76
2018-07-01T15:35:02.229Z,35.49
2018-07-01T15:38:08.863Z,39.51
2018-07-01T15:41:15.014Z,39.50
2018-07-01T15:44:22.056Z,39.50
2018-07-01T15:47:27.737Z,39.09
2018-07-01T15:50:33.855Z,40.53
2018-07-01T15:53:39.641Z,38.48
2018-07-01T15:56:45.179Z,40.94
2018-07-01T15:59:51.135Z,37.30
2018-07-01T16:02:57.275Z,38.75
2018-07-01T16:06:03.715Z,39.03
2018-07-01T16:09:11.349Z,37.48
2018-07-01T16:12:16.539Z,38.15
2018-07-01T16:15:23.454Z,37.07
2018-07-01T16:18:29.896Z,37.37
2018-07-01T16:21:35.615Z,36.90
2018-07-01T16:24:47.941Z,36.28
2018-07-01T16:27:58.087Z,39.90
2018-07-01T16:31:03.463Z,36.84
2018-07-01T16:34:10.509Z,36.45
2018-07-01T16:37:17.516Z,37.69
2018-07-01T16:40:23.792Z,36.50
2018-07-01T16:43:29.290Z,38.01
2018-07-01T16:46:34.806Z,36.44
2018-07-01T16:49:40.786Z,36.25
2018-07-01T16:52:47.791Z,37.91
2018-07-01T16:55:53.479Z,38.72
2018-07-01T16:59:00.895Z,36.80
2018-07-01T17:02:07.077Z,38.60
2018-07-01T17:05:13.201Z,37.84
2018-07-01T17:08:18.349Z,38.41
2018-07-01T17:11:24.059Z,37.70
2018-07-01T17:14:31.174Z,37.59
2018-07-01T17:17:36.929Z,37.62
2018-07-01T17:20:42.118Z,38.95
2018-07-01T17:23:49.163Z,37.35
2018-07-01T17:26:55.251Z,37.28
2018-07-01T17:30:02.380Z,37.53
2018-07-01T17:33:13.244Z,38.90
2018-07-01T17:36:19.150Z,38.39
2018-07-01T17:39:25.247Z,38.53
2018-07-01T17:42:31.207Z,38.87
2018-07-01T17:45:37.435Z,38.50
2018-07-01T17:48:44.120Z,39.26
2018-07-01T17:51:50.271Z,38.45
2018-07-01T17:54:55.577Z,38.34
2018-07-01T17:58:01.440Z,38.98
2018-07-01T18:01:07.598Z,38.17
2018-07-01T18:04:13.085Z,38.84
2018-07-01T18:07:18.305Z,39.35
2018-07-01T18:10:23.468Z,39.46
2018-07-01T18:13:28.621Z,40.42
2018-07-01T18:16:33.739Z,40.61
2018-07-01T18:19:40.842Z,39.97
2018-07-01T18:23:18.242Z,39.24
2018-07-01T18:25:53.100Z,39.75
2018-07-01T18:29:08.184Z,39.92
2018-07-01T18:32:07.407Z,40.15
2018-07-01T18:35:13.131Z,40.26
2018-07-01T18:38:20.384Z,41.81
2018-07-01T18:41:25.614Z,40.65
2018-07-01T18:44:30.999Z,41.60
2018-07-01T18:47:36.879Z,41.88
2018-07-01T18:50:42.029Z,42.18
2018-07-01T18:53:47.577Z,41.85
2018-07-01T18:56:54.578Z,42.54
2018-07-01T19:00:02.306Z,41.85
2018-07-01T19:03:09.709Z,42.21
2018-07-01T19:06:15.823Z,42.61
2018-07-01T19:09:21.745Z,42.51
2018-07-01T19:12:28.026Z,43.25
2018-07-01T19:15:33.266Z,42.13
2018-07-01T19:18:40.373Z,42.39
2018-07-01T19:21:46.750Z,43.49
2018-07-01T19:24:52.879Z,43.17
2018-07-01T19:27:58.790Z,42.70
2018-07-01T19:31:09.614Z,43.07
2018-07-01T19:34:16.295Z,43.40
2018-07-01T19:37:22.988Z,42.90
2018-07-01T19:40:30.107Z,44.25
2018-07-01T19:43:36.164Z,44.15
2018-07-01T19:46:41.831Z,43.95
2018-07-01T19:49:46.946Z,43.99
2018-07-01T19:52:52.690Z,44.02
2018-07-01T19:55:58.666Z,44.56
2018-07-01T19:59:03.822Z,44.41
2018-07-01T20:02:09.950Z,44.79
2018-07-01T20:05:15.866Z,45.61
2018-07-01T20:08:21.227Z,46.34
2018-07-01T20:11:26.361Z,46.64
2018-07-01T20:14:33.229Z,46.19
2018-07-01T20:17:38.755Z,46.39
2018-07-01T20:20:45.591Z,46.78
2018-07-01T20:23:51.339Z,47.20
2018-07-01T20:26:56.828Z,47.05
2018-07-01T20:30:03.183Z,47.81
2018-07-01T20:33:10.003Z,47.44
2018-07-01T20:36:15.247Z,47.53
2018-07-01T20:39:20.538Z,47.69
2018-07-01T20:42:26.232Z,48.28
2018-07-01T20:45:32.754Z,48.76
2018-07-01T20:48:39.967Z,48.83
2018-07-01T20:51:45.142Z,48.61
2018-07-01T20:54:52.451Z,49.39
2018-07-01T20:57:58.344Z,49.60
2018-07-01T21:01:04.795Z,50.09
2018-07-01T21:04:12.443Z,50.09
2018-07-01T21:07:20.350Z,49.61
2018-07-01T21:10:28.244Z,50.47
2018-07-01T21:13:39.433Z,50.64
2018-07-01T21:16:47.179Z,50.67
2018-07-01T21:19:53.217Z,50.87
2018-07-01T21:23:00.102Z,51.14
2018-07-01T21:26:06.148Z,51.63
2018-07-01T21:29:12.157Z,52.33
2018-07-01T21:32:17.319Z,51.34
2018-07-01T21:35:22.462Z,52.43
2018-07-01T21:38:31.158Z,52.02
2018-07-01T21:41:40.844Z,52.12
2018-07-01T21:44:51.783Z,52.89
2018-07-01T21:48:00.167Z,53.04
2018-07-01T21:51:05.914Z,52.83
2018-07-01T21:54:12.208Z,53.12
2018-07-01T21:57:18.503Z,53.23
2018-07-01T22:00:29.983Z,53.80
2018-07-01T22:03:35.746Z,53.96
2018-07-01T22:06:47.393Z,53.97
2018-07-01T22:09:53.359Z,54.87
2018-07-01T22:12:58.741Z,55.09
2018-07-01T22:16:07.769Z,55.15
2018-07-01T22:19:14.094Z,54.98
2018-07-01T22:22:21.214Z,55.83
2018-07-01T22:25:28.345Z,55.70
2018-07-01T22:28:34.549Z,55.47
2018-07-01T22:31:41.341Z,56.48
2018-07-01T22:34:46.682Z,56.23
2018-07-01T22:37:53.929Z,55.76
2018-07-01T22:40:59.637Z,56.35
2018-07-01T22:44:06.521Z,56.32
2018-07-01T22:47:13.517Z,56.59
2018-07-01T22:50:19.581Z,57.35
2018-07-01T22:53:25.648Z,56.92
2018-07-01T22:56:32.286Z,56.76
2018-07-01T22:59:37.627Z,58.07
2018-07-01T23:02:55.685Z,57.84
2018-07-01T23:06:01.802Z,57.51
2018-07-01T23:09:08.654Z,58.56
2018-07-01T23:12:15.942Z,58.06
2018-07-01T23:15:22.850Z,58.20
2018-07-01T23:18:28.418Z,58.15
2018-07-01T23:21:34.642Z,58.97
2018-07-01T23:24:39.942Z,58.88
2018-07-01T23:27:46.826Z,59.05
2018-07-01T23:30:52.871Z,58.53
2018-07-01T23:33:59.522Z,59.11
2018-07-01T23:37:05.190Z,59.33
2018-07-01T23:40:12.001Z,59.40
2018-07-01T23:43:17.877Z,59.22
2018-07-01T23:46:23.245Z,59.40
2018-07-01T23:49:28.556Z,59.46
2018-07-01T23:52:34.792Z,58.27
2018-07-01T23:55:40.961Z,59.13
2018-07-01T23:58:47.521Z,58.75
